Ioannis Kapodistrias International Airport


Codes: LGKR/CFU
Name: Ioannis Kapodistrias International Airport
City: Kerkyra Island
Country: Greece
Elevation: 6 ft.
Wikipedia:

Photos at Ioannis Kapodistrias International Airport


   Photos courtesy of SpottingLog. You can add your own sightings and photos by signing up for a free trial today.



G-UZMD, 11-Oct-2023
© Shaun Grist

D-ASMR, 04-Oct-2023
© Shaun Grist

D-AEEA, 04-Oct-2023
© Shaun Grist

G-EUUT, 04-Oct-2023
© Shaun Grist

G-JZBP, 04-Oct-2023
© Shaun Grist

G-JZHR, 04-Oct-2023
© Shaun Grist

D-ANDI, 04-Oct-2023
© Shaun Grist

G-UZHI, 04-Oct-2023
© Shaun Grist

G-UZHK, 04-Oct-2023
© Shaun Grist

D-AENE, 04-Oct-2023
© Shaun Grist

G-EZOI, 04-Oct-2023
© Shaun Grist

D-AIUX, 04-Oct-2023
© Shaun Grist


Weather at Ioannis Kapodistrias International Airport


Time (UTC)DescriptionTempratureWindCloud coverageVisibilityPressureHumidity
19-Apr-2024 06:00Scattered Clouds12°C4 mph, E40%10000m1009hPa83%
19-Apr-2024 09:00Broken Clouds14°C11 mph, SE58%10000m1009hPa71%
19-Apr-2024 12:00Light Rain16°C9 mph, S74%10000m1007hPa62%
19-Apr-2024 15:00Moderate Rain13°C9 mph, SE100%5394m1005hPa84%
19-Apr-2024 18:00Heavy Intensity Rain12°C4 mph, NW100%9718m1004hPa87%
19-Apr-2024 21:00Moderate Rain12°C2 mph, NE100%10000m1006hPa84%
20-Apr-2024 00:00Broken Clouds13°C7 mph, N80%10000m1006hPa74%
20-Apr-2024 03:00Clear Sky14°C7 mph, N2%10000m1006hPa69%
20-Apr-2024 06:00Clear Sky14°C4 mph, N1%10000m1008hPa63%
20-Apr-2024 09:00Clear Sky15°C4 mph, NW0%10000m1009hPa54%
20-Apr-2024 12:00Clear Sky17°C11 mph, NW0%10000m1010hPa51%
20-Apr-2024 15:00Clear Sky16°C11 mph, W0%10000m1010hPa50%
20-Apr-2024 18:00Clear Sky15°C7 mph, SW0%10000m1011hPa50%
20-Apr-2024 21:00Light Rain15°C13 mph, SE11%10000m1011hPa64%
21-Apr-2024 00:00Light Rain16°C18 mph, SE46%10000m1009hPa66%
21-Apr-2024 03:00Light Rain15°C25 mph, SE91%10000m1008hPa71%
21-Apr-2024 06:00Moderate Rain16°C18 mph, SW93%6208m1008hPa73%
21-Apr-2024 09:00Moderate Rain16°C16 mph, SW34%6942m1010hPa69%
21-Apr-2024 12:00Light Rain17°C11 mph, NW29%10000m1011hPa62%
21-Apr-2024 15:00Light Rain16°C2 mph, NW100%10000m1012hPa56%
21-Apr-2024 18:00Light Rain16°C2 mph, S100%10000m1014hPa59%
21-Apr-2024 21:00Light Rain16°C4 mph, E100%10000m1014hPa64%
22-Apr-2024 00:00Light Rain15°C7 mph, E63%10000m1014hPa68%
22-Apr-2024 03:00Broken Clouds15°C7 mph, E75%10000m1014hPa68%
22-Apr-2024 06:00Overcast Clouds15°C7 mph, E87%10000m1015hPa66%
22-Apr-2024 09:00Overcast Clouds17°C4 mph, NE100%10000m1014hPa60%
22-Apr-2024 12:00Overcast Clouds18°C2 mph, NW100%10000m1015hPa56%
22-Apr-2024 15:00Overcast Clouds17°C9 mph, NW100%10000m1013hPa64%
22-Apr-2024 18:00Overcast Clouds18°C9 mph, N100%10000m1012hPa68%
22-Apr-2024 21:00Overcast Clouds18°C7 mph, E100%10000m1011hPa64%
23-Apr-2024 00:00Overcast Clouds18°C9 mph, NE100%10000m1008hPa68%
23-Apr-2024 03:00Overcast Clouds17°C9 mph, E100%10000m1005hPa69%
23-Apr-2024 06:00Overcast Clouds18°C2 mph, N100%10000m1002hPa71%
23-Apr-2024 09:00Overcast Clouds19°C2 mph, N100%10000m999hPa70%
23-Apr-2024 12:00Overcast Clouds20°C0 mph, SE100%10000m1000hPa62%
23-Apr-2024 15:00Broken Clouds20°C7 mph, W68%10000m998hPa69%
23-Apr-2024 18:00Moderate Rain15°C25 mph, NW79%875m1000hPa94%
23-Apr-2024 21:00Moderate Rain15°C18 mph, NW100%10000m1004hPa81%
24-Apr-2024 00:00Light Rain15°C13 mph, NW67%10000m1006hPa73%
24-Apr-2024 03:00Light Rain14°C4 mph, SW14%10000m1007hPa74%